createdAt,value
2023-01-12T00:01:42.294Z,101289.72
2023-01-12T00:04:45.396Z,101296.59
2023-01-12T00:07:48.254Z,101306.31
2023-01-12T00:10:56.321Z,101307.28
2023-01-12T00:13:59.369Z,101308.47
2023-01-12T00:17:02.634Z,101310.97
2023-01-12T00:20:06.727Z,101318.81
2023-01-12T00:23:12.501Z,101313.69
2023-01-12T00:26:15.304Z,101316.19
2023-01-12T00:29:18.813Z,101319.75
2023-01-12T00:32:22.518Z,101314.63
2023-01-12T00:35:25.209Z,101319.03
2023-01-12T00:38:28.360Z,101317.72
2023-01-12T00:42:03.616Z,101329.69
2023-01-12T00:45:23.869Z,101327.88
2023-01-12T00:48:26.992Z,101335.66
2023-01-12T00:51:29.916Z,101340.63
2023-01-12T00:54:33.812Z,101352.00
2023-01-12T00:57:36.699Z,101354.50
2023-01-12T01:00:39.979Z,101365.16
2023-01-12T01:03:42.950Z,101357.34
2023-01-12T01:06:46.146Z,101357.69
2023-01-12T01:09:49.833Z,101357.19
2023-01-12T01:12:53.052Z,101363.34
2023-01-12T01:15:55.970Z,101361.63
2023-01-12T01:18:59.793Z,101362.97
2023-01-12T01:22:02.846Z,101365.22
2023-01-12T01:25:06.171Z,101354.19
2023-01-12T01:28:08.959Z,101353.81
2023-01-12T01:31:23.230Z,101351.22
2023-01-12T01:34:26.305Z,101353.44
2023-01-12T01:37:29.078Z,101347.69
2023-01-12T01:40:33.472Z,101362.03
2023-01-12T01:43:59.715Z,101361.13
2023-01-12T01:47:15.012Z,101340.50
2023-01-12T01:50:20.157Z,101342.06
2023-01-12T01:53:25.767Z,101338.50
2023-01-12T01:56:31.789Z,101329.38
2023-01-12T01:59:38.506Z,101338.59
2023-01-12T02:02:43.547Z,101341.88
2023-01-12T02:05:49.187Z,101346.47
2023-01-12T02:09:27.986Z,101341.28
2023-01-12T02:12:49.522Z,101343.06
2023-01-12T02:16:18.966Z,101336.06
2023-01-12T02:19:33.799Z,101339.25
2023-01-12T02:22:53.636Z,101342.16
2023-01-12T02:26:38.137Z,101340.22
2023-01-12T02:29:55.742Z,101334.59
2023-01-12T02:33:19.986Z,101326.91
2023-01-12T02:36:37.816Z,101331.19
2023-01-12T02:40:06.697Z,101324.44
2023-01-12T02:43:16.886Z,101322.78
2023-01-12T02:46:32.388Z,101324.84
2023-01-12T02:49:42.448Z,101322.94
2023-01-12T02:52:51.483Z,101324.72
2023-01-12T02:55:54.725Z,101320.59
2023-01-12T02:59:03.513Z,101315.63
2023-01-12T03:02:19.012Z,101315.75
2023-01-12T03:05:21.941Z,101306.25
2023-01-12T03:08:29.075Z,101300.50
2023-01-12T03:11:32.006Z,101303.94
2023-01-12T03:14:39.463Z,101299.25
2023-01-12T03:17:44.738Z,101301.31
2023-01-12T03:20:55.999Z,101286.97
2023-01-12T03:24:22.589Z,101290.97
2023-01-12T03:27:32.484Z,101293.72
2023-01-12T03:30:39.262Z,101283.69
2023-01-12T03:33:44.290Z,101286.44
2023-01-12T03:37:14.556Z,101290.81
2023-01-12T03:40:36.535Z,101293.44
2023-01-12T03:43:50.447Z,101292.88
2023-01-12T03:47:04.342Z,101305.03
2023-01-12T03:50:16.874Z,101305.81
2023-01-12T03:53:23.443Z,101307.03
2023-01-12T03:56:31.346Z,101304.19
2023-01-12T03:59:34.212Z,101300.59
2023-01-12T04:02:37.099Z,101304.06
2023-01-12T04:05:44.260Z,101298.13
2023-01-12T04:08:47.206Z,101288.88
2023-01-12T04:12:09.084Z,101287.94
2023-01-12T04:15:12.006Z,101302.53
2023-01-12T04:18:16.031Z,101302.13
2023-01-12T04:21:39.516Z,101304.22
2023-01-12T04:24:42.581Z,101303.66
2023-01-12T04:27:49.595Z,101309.84
2023-01-12T04:30:53.461Z,101307.38
2023-01-12T04:33:56.323Z,101318.53
2023-01-12T04:37:02.033Z,101306.97
2023-01-12T04:40:06.149Z,101310.69
2023-01-12T04:43:10.258Z,101309.72
2023-01-12T04:46:13.210Z,101321.00
2023-01-12T04:49:16.849Z,101324.31
2023-01-12T04:52:19.626Z,101317.53
2023-01-12T04:55:22.384Z,101325.16
2023-01-12T04:58:25.138Z,101321.16
2023-01-12T05:01:31.108Z,101325.13
2023-01-12T05:04:34.085Z,101324.31
2023-01-12T05:07:36.970Z,101322.13
2023-01-12T05:10:39.993Z,101332.69
2023-01-12T05:13:42.932Z,101338.75
2023-01-12T05:16:45.852Z,101344.69
2023-01-12T05:19:49.830Z,101348.00
2023-01-12T05:22:52.931Z,101360.41
2023-01-12T05:26:01.757Z,101353.06
2023-01-12T05:29:04.673Z,101357.91
2023-01-12T05:32:07.717Z,101351.41
2023-01-12T05:35:10.557Z,101351.69
2023-01-12T05:38:13.303Z,101355.97
2023-01-12T05:41:16.114Z,101346.72
2023-01-12T05:44:18.804Z,101362.72
2023-01-12T05:47:21.526Z,101362.63
2023-01-12T05:50:24.360Z,101352.44
2023-01-12T05:53:43.771Z,101356.56
2023-01-12T05:56:49.730Z,101356.69
2023-01-12T05:59:52.546Z,101355.19
2023-01-12T06:02:55.659Z,101363.56
2023-01-12T06:05:58.722Z,101365.53
2023-01-12T06:09:02.519Z,101365.50
2023-01-12T06:12:24.246Z,101364.72
2023-01-12T06:15:27.035Z,101370.19
2023-01-12T06:18:29.853Z,101378.88
2023-01-12T06:21:33.757Z,101381.94
2023-01-12T06:24:36.589Z,101379.16
2023-01-12T06:27:40.061Z,101381.66
2023-01-12T06:30:42.903Z,101386.34
2023-01-12T06:33:46.092Z,101388.28
2023-01-12T06:36:49.715Z,101392.69
2023-01-12T06:39:52.514Z,101395.44
2023-01-12T06:42:55.308Z,101398.47
2023-01-12T06:45:58.907Z,101394.19
2023-01-12T06:49:01.786Z,101406.34
2023-01-12T06:52:04.924Z,101409.47
2023-01-12T06:55:08.880Z,101402.84
2023-01-12T06:58:11.672Z,101421.88
2023-01-12T07:01:21.265Z,101410.16
2023-01-12T07:04:26.232Z,101411.81
2023-01-12T07:07:29.721Z,101418.28
2023-01-12T07:10:33.424Z,101416.06
2023-01-12T07:13:37.290Z,101419.38
2023-01-12T07:16:40.607Z,101422.66
2023-01-12T07:19:44.138Z,101422.53
2023-01-12T07:22:47.007Z,101420.09
2023-01-12T07:25:50.344Z,101421.06
2023-01-12T07:28:53.217Z,101414.44
2023-01-12T07:31:57.480Z,101414.53
2023-01-12T07:35:00.863Z,101416.59
2023-01-12T07:38:04.320Z,101422.88
2023-01-12T07:41:27.562Z,101430.25
2023-01-12T07:44:35.105Z,101428.88
2023-01-12T07:47:38.323Z,101433.81
2023-01-12T07:50:41.257Z,101444.19
2023-01-12T07:53:44.219Z,101437.09
2023-01-12T07:56:47.301Z,101443.00
2023-01-12T07:59:50.264Z,101445.41
2023-01-12T08:02:54.528Z,101449.41
2023-01-12T08:05:58.316Z,101459.34
2023-01-12T08:09:01.165Z,101457.16
2023-01-12T08:12:04.597Z,101460.91
2023-01-12T08:15:08.976Z,101450.31
2023-01-12T08:18:25.661Z,101455.56
2023-01-12T08:21:40.163Z,101461.66
2023-01-12T08:24:53.597Z,101460.28
2023-01-12T08:28:01.110Z,101470.06
2023-01-12T08:31:06.004Z,101473.88
2023-01-12T08:34:10.179Z,101474.72
2023-01-12T08:37:16.552Z,101484.06
2023-01-12T08:40:19.722Z,101489.84
2023-01-12T08:43:41.055Z,101486.97
2023-01-12T08:46:52.449Z,101484.25
2023-01-12T08:49:55.634Z,101482.19
2023-01-12T08:52:58.451Z,101488.78
2023-01-12T08:56:03.471Z,101497.88
2023-01-12T08:59:06.894Z,101497.56
2023-01-12T09:02:13.058Z,101506.28
2023-01-12T09:05:16.850Z,101507.88
2023-01-12T09:08:22.154Z,101503.22
2023-01-12T09:11:29.080Z,101512.47
2023-01-12T09:14:46.297Z,101503.81
2023-01-12T09:17:57.611Z,101510.25
2023-01-12T09:21:04.893Z,101509.03
2023-01-12T09:24:08.776Z,101503.69
2023-01-12T09:27:11.895Z,101501.53
2023-01-12T09:30:15.010Z,101501.06
2023-01-12T09:33:18.045Z,101509.09
2023-01-12T09:36:23.877Z,101508.50
2023-01-12T09:39:28.992Z,101503.97
2023-01-12T09:42:50.360Z,101504.03
2023-01-12T09:46:12.184Z,101501.34
2023-01-12T09:49:18.463Z,101503.22
2023-01-12T09:52:30.200Z,101503.81
2023-01-12T09:56:03.823Z,101497.97
2023-01-12T09:59:20.796Z,101496.69
2023-01-12T10:02:27.072Z,101493.75
2023-01-12T10:05:52.423Z,101493.00
2023-01-12T10:09:02.128Z,101490.91
2023-01-12T10:12:28.549Z,101494.28
2023-01-12T10:15:53.750Z,101497.91
2023-01-12T10:19:01.370Z,101496.16
2023-01-12T10:22:37.641Z,101486.84
2023-01-12T10:25:50.258Z,101490.44
2023-01-12T10:28:56.441Z,101486.50
2023-01-12T10:31:59.439Z,101470.13
2023-01-12T10:35:02.320Z,101467.13
2023-01-12T10:38:19.992Z,101470.06
2023-01-12T10:41:26.665Z,101464.28
2023-01-12T10:44:29.537Z,101468.03
2023-01-12T10:47:33.857Z,101458.13
2023-01-12T10:50:37.863Z,101451.50
2023-01-12T10:53:46.595Z,101457.81
2023-01-12T10:57:03.277Z,101447.19
2023-01-12T11:00:08.127Z,101430.06
2023-01-12T11:03:37.668Z,101432.63
2023-01-12T11:06:44.741Z,101430.38
2023-01-12T11:09:47.902Z,101434.75
2023-01-12T11:12:59.654Z,101424.13
2023-01-12T11:16:19.308Z,101425.88
2023-01-12T11:19:40.305Z,101419.53
2023-01-12T11:22:45.408Z,101408.34
2023-01-12T11:25:51.768Z,101414.81
2023-01-12T11:28:59.994Z,101412.03
2023-01-12T11:32:34.121Z,101406.84
2023-01-12T11:36:03.407Z,101396.91
2023-01-12T11:39:13.300Z,101403.44
2023-01-12T11:42:43.223Z,101401.16
2023-01-12T11:46:08.448Z,101404.16
2023-01-12T11:49:40.279Z,101399.53
2023-01-12T11:52:45.619Z,101396.34
2023-01-12T11:56:03.546Z,101385.00
2023-01-12T11:59:24.038Z,101379.94
2023-01-12T12:02:37.694Z,101392.50
2023-01-12T12:05:43.872Z,101383.78
2023-01-12T12:09:25.892Z,101376.34
2023-01-12T12:12:28.785Z,101372.31
2023-01-12T12:15:51.171Z,101364.94
2023-01-12T12:19:05.698Z,101363.09
2023-01-12T12:22:26.869Z,101373.00
2023-01-12T12:25:48.561Z,101365.03
2023-01-12T12:29:19.435Z,101360.22
2023-01-12T12:32:25.439Z,101365.16
2023-01-12T12:35:54.456Z,101357.72
2023-01-12T12:39:06.286Z,101346.47
2023-01-12T12:42:49.090Z,101346.81
2023-01-12T12:46:07.672Z,101346.75
2023-01-12T12:49:19.222Z,101347.16
2023-01-12T12:52:24.637Z,101332.34
2023-01-12T12:55:28.104Z,101342.28
2023-01-12T12:59:01.928Z,101331.63
2023-01-12T13:02:38.860Z,101342.44
2023-01-12T13:05:51.177Z,101340.53
2023-01-12T13:08:59.608Z,101328.69
2023-01-12T13:12:02.645Z,101332.25
2023-01-12T13:15:11.311Z,101328.22
2023-01-12T13:18:49.677Z,101335.22
2023-01-12T13:21:58.173Z,101336.84
2023-01-12T13:25:10.274Z,101337.66
2023-01-12T13:28:19.772Z,101338.88
2023-01-12T13:31:32.741Z,101335.69
2023-01-12T13:34:39.002Z,101332.53
2023-01-12T13:37:52.166Z,101338.25
2023-01-12T13:41:13.758Z,101335.25
2023-01-12T13:44:30.073Z,101337.00
2023-01-12T13:47:34.226Z,101337.38
2023-01-12T13:50:37.771Z,101328.09
2023-01-12T13:53:41.005Z,101332.72
2023-01-12T13:56:53.711Z,101346.38
2023-01-12T14:00:04.982Z,101344.47
2023-01-12T14:03:30.819Z,101334.00
2023-01-12T14:06:40.646Z,101341.22
2023-01-12T14:09:55.771Z,101343.50
2023-01-12T14:13:26.488Z,101344.38
2023-01-12T14:17:05.587Z,101345.34
2023-01-12T14:20:18.414Z,101344.09
2023-01-12T14:23:26.997Z,101348.84
2023-01-12T14:26:34.875Z,101353.03
2023-01-12T14:29:38.074Z,101351.63
2023-01-12T14:32:44.107Z,101354.06
2023-01-12T14:37:02.562Z,101358.06
2023-01-12T14:40:55.370Z,101364.13
2023-01-12T14:44:17.597Z,101357.56
2023-01-12T14:47:29.850Z,101360.41
2023-01-12T14:50:33.019Z,101365.59
2023-01-12T14:53:42.810Z,101366.63
2023-01-12T14:57:37.219Z,101367.00
2023-01-12T15:00:43.657Z,101365.06
2023-01-12T15:03:48.601Z,101372.63
2023-01-12T15:07:04.634Z,101365.91
2023-01-12T15:10:10.575Z,101372.19
2023-01-12T15:13:26.005Z,101379.59
2023-01-12T15:16:47.486Z,101378.25
2023-01-12T15:20:08.854Z,101379.88
2023-01-12T15:23:32.341Z,101374.22
2023-01-12T15:26:35.108Z,101382.06
2023-01-12T15:29:38.059Z,101371.31
2023-01-12T15:32:47.618Z,101373.88
2023-01-12T15:35:51.028Z,101368.88
2023-01-12T15:38:54.152Z,101376.66
2023-01-12T15:42:15.435Z,101386.94
2023-01-12T15:45:28.827Z,101380.41
2023-01-12T15:48:31.778Z,101376.50
2023-01-12T15:51:35.495Z,101383.81
2023-01-12T15:54:38.214Z,101387.31
2023-01-12T15:57:42.189Z,101377.63
2023-01-12T16:00:45.755Z,101374.13
2023-01-12T16:04:15.075Z,101384.69
2023-01-12T16:07:11.783Z,101384.31
2023-01-12T16:10:16.559Z,101383.25
2023-01-12T16:13:19.365Z,101386.31
2023-01-12T16:16:22.305Z,101388.94
2023-01-12T16:19:25.387Z,101387.88
2023-01-12T16:22:28.506Z,101388.63
2023-01-12T16:25:31.584Z,101387.38
2023-01-12T16:28:34.695Z,101387.69
2023-01-12T16:31:39.364Z,101382.19
2023-01-12T16:34:42.376Z,101380.13
2023-01-12T16:37:45.194Z,101381.69
2023-01-12T16:40:49.320Z,101379.38
2023-01-12T16:43:52.409Z,101373.91
2023-01-12T16:46:55.261Z,101371.75
2023-01-12T16:49:58.720Z,101375.75
2023-01-12T16:53:01.757Z,101380.09
2023-01-12T16:56:04.816Z,101372.66
2023-01-12T16:59:08.136Z,101374.59
2023-01-12T17:02:14.983Z,101380.66
2023-01-12T17:05:18.090Z,101387.28
2023-01-12T17:08:21.099Z,101389.66
2023-01-12T17:11:24.495Z,101393.38
2023-01-12T17:14:28.599Z,101398.88
2023-01-12T17:17:31.648Z,101399.16
2023-01-12T17:20:36.358Z,101396.25
2023-01-12T17:23:41.175Z,101390.19
2023-01-12T17:26:45.424Z,101394.88
2023-01-12T17:29:49.093Z,101398.34
2023-01-12T17:32:52.036Z,101400.81
2023-01-12T17:35:54.802Z,101394.19
2023-01-12T17:38:57.984Z,101399.97
2023-01-12T17:42:20.040Z,101397.75
2023-01-12T17:45:23.049Z,101396.72
2023-01-12T17:48:25.969Z,101395.50
2023-01-12T17:51:29.426Z,101401.28
2023-01-12T17:54:35.221Z,101393.88
2023-01-12T17:57:38.485Z,101389.75
2023-01-12T18:00:41.594Z,101403.41
2023-01-12T18:03:44.782Z,101401.69
2023-01-12T18:06:48.035Z,101394.28
2023-01-12T18:09:51.084Z,101391.06
2023-01-12T18:12:54.055Z,101380.69
2023-01-12T18:15:57.368Z,101385.50
2023-01-12T18:19:04.724Z,101378.72
2023-01-12T18:22:07.741Z,101370.00
2023-01-12T18:25:10.725Z,101371.47
2023-01-12T18:28:14.471Z,101374.63
2023-01-12T18:31:21.447Z,101369.00
2023-01-12T18:34:24.855Z,101379.50
2023-01-12T18:37:27.982Z,101385.41
2023-01-12T18:40:32.870Z,101368.09
2023-01-12T18:43:35.805Z,101377.25
2023-01-12T18:47:05.596Z,101381.19
2023-01-12T18:50:47.658Z,101387.34
2023-01-12T18:53:50.756Z,101387.19
2023-01-12T18:56:53.856Z,101376.50
2023-01-12T19:00:00.668Z,101384.47
2023-01-12T19:03:05.784Z,101373.25
2023-01-12T19:06:16.754Z,101375.22
2023-01-12T19:09:35.244Z,101374.72
2023-01-12T19:12:38.153Z,101363.97
2023-01-12T19:16:00.078Z,101374.97
2023-01-12T19:19:03.188Z,101378.97
2023-01-12T19:22:24.792Z,101376.94
2023-01-12T19:25:47.094Z,101369.50
2023-01-12T19:28:50.151Z,101379.94
2023-01-12T19:31:53.316Z,101377.44
2023-01-12T19:35:02.388Z,101380.88
2023-01-12T19:38:14.768Z,101377.13
2023-01-12T19:41:36.198Z,101383.81
2023-01-12T19:44:39.606Z,101379.19
2023-01-12T19:47:42.923Z,101371.06
2023-01-12T19:50:47.310Z,101362.63
2023-01-12T19:53:50.408Z,101368.59
2023-01-12T19:56:53.424Z,101372.34
2023-01-12T19:59:56.430Z,101366.22
2023-01-12T20:02:59.526Z,101365.13
2023-01-12T20:06:07.764Z,101364.44
2023-01-12T20:09:12.419Z,101365.97
2023-01-12T20:12:16.432Z,101360.31
2023-01-12T20:15:20.956Z,101360.66
2023-01-12T20:18:24.722Z,101352.94
2023-01-12T20:21:28.014Z,101364.53
2023-01-12T20:24:31.488Z,101359.31
2023-01-12T20:27:36.408Z,101365.47
2023-01-12T20:30:43.094Z,101360.22
2023-01-12T20:33:53.758Z,101368.84
2023-01-12T20:36:58.264Z,101362.97
2023-01-12T20:40:03.547Z,101364.53
2023-01-12T20:43:08.494Z,101364.31
2023-01-12T20:46:14.304Z,101364.34
2023-01-12T20:49:18.106Z,101374.44
2023-01-12T20:52:25.391Z,101371.75
2023-01-12T20:55:30.138Z,101361.44
2023-01-12T20:58:39.607Z,101349.59
2023-01-12T21:01:44.954Z,101357.31
2023-01-12T21:04:55.821Z,101357.31
2023-01-12T21:08:07.469Z,101358.50
2023-01-12T21:11:17.811Z,101374.84
2023-01-12T21:14:23.160Z,101369.03
2023-01-12T21:17:26.263Z,101372.13
2023-01-12T21:20:29.429Z,101369.38
2023-01-12T21:23:32.628Z,101365.13
2023-01-12T21:26:35.661Z,101360.75
2023-01-12T21:29:39.021Z,101356.34
2023-01-12T21:32:43.664Z,101355.47
2023-01-12T21:35:55.421Z,101350.50
2023-01-12T21:38:59.415Z,101353.50
2023-01-12T21:42:20.908Z,101347.34
2023-01-12T21:45:25.597Z,101343.19
2023-01-12T21:48:28.673Z,101345.56
2023-01-12T21:51:31.580Z,101346.97
2023-01-12T21:54:34.871Z,101347.78
2023-01-12T21:57:37.931Z,101342.69
2023-01-12T22:00:40.849Z,101345.06
2023-01-12T22:03:43.838Z,101344.47
2023-01-12T22:06:46.781Z,101343.19
2023-01-12T22:09:49.737Z,101346.41
2023-01-12T22:12:55.442Z,101338.59
2023-01-12T22:16:02.926Z,101327.22
2023-01-12T22:19:05.807Z,101333.63
2023-01-12T22:22:08.943Z,101329.94
2023-01-12T22:25:14.093Z,101335.88
2023-01-12T22:28:17.054Z,101335.88
2023-01-12T22:31:22.673Z,101344.88
2023-01-12T22:34:26.110Z,101343.84
2023-01-12T22:37:29.199Z,101341.09
2023-01-12T22:40:33.093Z,101337.06
2023-01-12T22:43:43.048Z,101341.69
2023-01-12T22:46:45.978Z,101341.69
2023-01-12T22:49:48.852Z,101342.63
2023-01-12T22:52:55.724Z,101339.66
2023-01-12T22:56:03.979Z,101336.47
2023-01-12T22:59:09.968Z,101320.84
2023-01-12T23:02:31.975Z,101327.59
2023-01-12T23:05:37.582Z,101331.75
2023-01-12T23:08:41.664Z,101321.31
2023-01-12T23:11:45.004Z,101328.75
2023-01-12T23:14:47.962Z,101321.66
2023-01-12T23:17:50.795Z,101332.66
2023-01-12T23:20:54.427Z,101331.16
2023-01-12T23:23:59.275Z,101325.22
2023-01-12T23:27:04.659Z,101309.72
2023-01-12T23:30:08.478Z,101314.22
2023-01-12T23:33:11.408Z,101312.69
2023-01-12T23:36:17.249Z,101318.25
2023-01-12T23:39:20.104Z,101313.97
2023-01-12T23:42:22.932Z,101320.00
2023-01-12T23:45:25.734Z,101312.78
2023-01-12T23:48:29.763Z,101316.06
2023-01-12T23:51:33.324Z,101318.31
2023-01-12T23:54:38.769Z,101326.94
2023-01-12T23:57:41.572Z,101326.34
